Key West, Florida
Current Conditions -  °F | °C
As of 10:53 AM on Thursday 27 Nov 2014 (Local Time) from KEYW Reporting Station
Clear Clear  
Wind Chill: 68°   Ceiling: Unl
Heat Index: 68°   Visibility: 10mi
Dew Point: 47°   Wind: 20mph
Humidity: 47%   Direction: 10°N
Pressure: 30.27"   Gusts: 26mph
Location:  24.55°N, 81.8°W
Report Text: KEYW 271553Z 01017G23KT 10SM CLR 20/08 A3027 RMK AO2 SLP248 T02000083
Loading
Personal Weather Stations






























Interactive Weather Map New forecast layout! Learn more

10-Day Weather Forecast

Advertisements
Track Severe Weather on mobile